sensor_id;sensor_type;location;lat;lon;timestamp;temperature;humidity
13808;DHT22;40769;51.512;5.494;2023-04-24T00:02:11;12.30;99.90
13808;DHT22;40769;51.512;5.494;2023-04-24T00:04:38;12.40;99.90
13808;DHT22;40769;51.512;5.494;2023-04-24T00:07:10;12.30;99.90
13808;DHT22;40769;51.512;5.494;2023-04-24T00:09:36;12.40;99.90
13808;DHT22;40769;51.512;5.494;2023-04-24T00:12:01;12.30;99.90
13808;DHT22;40769;51.512;5.494;2023-04-24T00:14:30;12.40;99.90
13808;DHT22;40769;51.512;5.494;2023-04-24T00:16:56;12.40;99.90
13808;DHT22;40769;51.512;5.494;2023-04-24T00:19:21;12.50;99.90
13808;DHT22;40769;51.512;5.494;2023-04-24T00:21:47;12.30;99.90
13808;DHT22;40769;51.512;5.494;2023-04-24T00:24:16;12.30;99.90
13808;DHT22;40769;51.512;5.494;2023-04-24T00:26:42;12.30;99.90
13808;DHT22;40769;51.512;5.494;2023-04-24T00:29:08;12.30;99.90
13808;DHT22;40769;51.512;5.494;2023-04-24T00:31:33;12.30;99.90
13808;DHT22;40769;51.512;5.494;2023-04-24T00:34:02;12.30;99.90
13808;DHT22;40769;51.512;5.494;2023-04-24T00:36:28;12.30;99.90
13808;DHT22;40769;51.512;5.494;2023-04-24T00:38:54;12.30;99.90
13808;DHT22;40769;51.512;5.494;2023-04-24T00:41:21;12.30;99.90
13808;DHT22;40769;51.512;5.494;2023-04-24T00:43:47;12.20;99.90
13808;DHT22;40769;51.512;5.494;2023-04-24T00:46:13;12.30;99.90
13808;DHT22;40769;51.512;5.494;2023-04-24T00:48:39;12.20;99.90
13808;DHT22;40769;51.512;5.494;2023-04-24T00:51:06;12.20;99.90
13808;DHT22;40769;51.512;5.494;2023-04-24T00:53:31;12.20;99.90
13808;DHT22;40769;51.512;5.494;2023-04-24T00:55:58;12.20;99.90
13808;DHT22;40769;51.512;5.494;2023-04-24T00:58:25;12.30;99.90
13808;DHT22;40769;51.512;5.494;2023-04-24T01:00:52;12.80;99.90
13808;DHT22;40769;51.512;5.494;2023-04-24T01:03:20;12.10;99.90
13808;DHT22;40769;51.512;5.494;2023-04-24T01:05:48;12.10;99.90
13808;DHT22;40769;51.512;5.494;2023-04-24T01:08:14;12.00;99.90
13808;DHT22;40769;51.512;5.494;2023-04-24T01:10:41;12.00;99.90
13808;DHT22;40769;51.512;5.494;2023-04-24T01:13:10;12.00;99.90
13808;DHT22;40769;51.512;5.494;2023-04-24T01:15:36;12.00;99.90
13808;DHT22;40769;51.512;5.494;2023-04-24T01:18:02;12.00;99.90
13808;DHT22;40769;51.512;5.494;2023-04-24T01:20:28;12.00;99.90
13808;DHT22;40769;51.512;5.494;2023-04-24T01:22:57;12.20;99.90
13808;DHT22;40769;51.512;5.494;2023-04-24T01:25:25;12.00;99.90
13808;DHT22;40769;51.512;5.494;2023-04-24T01:27:51;12.00;99.90
13808;DHT22;40769;51.512;5.494;2023-04-24T01:30:18;12.00;99.90
13808;DHT22;40769;51.512;5.494;2023-04-24T01:32:44;12.00;99.90
13808;DHT22;40769;51.512;5.494;2023-04-24T01:35:14;11.90;99.90
13808;DHT22;40769;51.512;5.494;2023-04-24T01:37:39;11.90;99.90
13808;DHT22;40769;51.512;5.494;2023-04-24T01:40:06;11.90;99.90
13808;DHT22;40769;51.512;5.494;2023-04-24T01:42:32;11.80;99.90
13808;DHT22;40769;51.512;5.494;2023-04-24T01:44:59;11.90;99.90
13808;DHT22;40769;51.512;5.494;2023-04-24T01:47:26;11.80;99.90
13808;DHT22;40769;51.512;5.494;2023-04-24T01:49:51;11.80;99.90
13808;DHT22;40769;51.512;5.494;2023-04-24T01:52:18;11.80;99.90
13808;DHT22;40769;51.512;5.494;2023-04-24T01:54:44;11.70;99.90
13808;DHT22;40769;51.512;5.494;2023-04-24T01:57:10;11.70;99.90
13808;DHT22;40769;51.512;5.494;2023-04-24T01:59:36;11.70;99.90
13808;DHT22;40769;51.512;5.494;2023-04-24T02:02:02;11.70;99.90
13808;DHT22;40769;51.512;5.494;2023-04-24T02:04:28;11.60;99.90
13808;DHT22;40769;51.512;5.494;2023-04-24T02:06:54;12.10;99.90
13808;DHT22;40769;51.512;5.494;2023-04-24T02:09:19;11.60;99.90
13808;DHT22;40769;51.512;5.494;2023-04-24T02:11:45;12.20;99.90
13808;DHT22;40769;51.512;5.494;2023-04-24T02:14:11;11.70;99.90
13808;DHT22;40769;51.512;5.494;2023-04-24T02:16:36;12.20;99.90
13808;DHT22;40769;51.512;5.494;2023-04-24T02:19:03;11.80;99.90
13808;DHT22;40769;51.512;5.494;2023-04-24T02:21:29;11.80;99.90
13808;DHT22;40769;51.512;5.494;2023-04-24T02:23:56;11.50;99.90
13808;DHT22;40769;51.512;5.494;2023-04-24T02:26:21;11.40;99.90
13808;DHT22;40769;51.512;5.494;2023-04-24T02:28:47;11.40;99.90
13808;DHT22;40769;51.512;5.494;2023-04-24T02:31:13;11.30;99.90
13808;DHT22;40769;51.512;5.494;2023-04-24T02:33:39;11.40;99.90
13808;DHT22;40769;51.512;5.494;2023-04-24T02:36:04;11.30;99.90
13808;DHT22;40769;51.512;5.494;2023-04-24T02:38:30;11.30;99.90
13808;DHT22;40769;51.512;5.494;2023-04-24T02:40:56;11.30;99.90
13808;DHT22;40769;51.512;5.494;2023-04-24T02:43:21;11.40;99.90
13808;DHT22;40769;51.512;5.494;2023-04-24T02:45:47;11.30;99.90
13808;DHT22;40769;51.512;5.494;2023-04-24T02:48:12;11.40;99.90
13808;DHT22;40769;51.512;5.494;2023-04-24T02:50:38;11.20;99.90
13808;DHT22;40769;51.512;5.494;2023-04-24T02:53:04;11.50;99.90
13808;DHT22;40769;51.512;5.494;2023-04-24T02:55:29;11.30;99.90
13808;DHT22;40769;51.512;5.494;2023-04-24T02:57:55;11.20;99.90
13808;DHT22;40769;51.512;5.494;2023-04-24T03:00:21;11.20;99.90
13808;DHT22;40769;51.512;5.494;2023-04-24T03:02:47;11.10;99.90
13808;DHT22;40769;51.512;5.494;2023-04-24T03:05:12;11.10;99.90
13808;DHT22;40769;51.512;5.494;2023-04-24T03:07:38;11.10;99.90
13808;DHT22;40769;51.512;5.494;2023-04-24T03:10:04;11.10;99.90
13808;DHT22;40769;51.512;5.494;2023-04-24T03:12:31;11.10;99.90
13808;DHT22;40769;51.512;5.494;2023-04-24T03:14:56;11.10;99.90
13808;DHT22;40769;51.512;5.494;2023-04-24T03:17:22;11.10;99.90
13808;DHT22;40769;51.512;5.494;2023-04-24T03:19:48;11.10;99.90
13808;DHT22;40769;51.512;5.494;2023-04-24T03:22:13;11.10;99.90
13808;DHT22;40769;51.512;5.494;2023-04-24T03:24:39;11.10;99.90
13808;DHT22;40769;51.512;5.494;2023-04-24T03:27:05;11.10;99.90
13808;DHT22;40769;51.512;5.494;2023-04-24T03:29:31;11.10;99.90
13808;DHT22;40769;51.512;5.494;2023-04-24T03:31:56;11.20;99.90
13808;DHT22;40769;51.512;5.494;2023-04-24T03:34:22;11.10;99.90
13808;DHT22;40769;51.512;5.494;2023-04-24T03:36:47;11.10;99.90
13808;DHT22;40769;51.512;5.494;2023-04-24T03:39:13;11.10;99.90
13808;DHT22;40769;51.512;5.494;2023-04-24T03:41:40;11.10;99.90
13808;DHT22;40769;51.512;5.494;2023-04-24T03:44:05;11.00;99.90
13808;DHT22;40769;51.512;5.494;2023-04-24T03:46:31;11.30;99.90
13808;DHT22;40769;51.512;5.494;2023-04-24T03:48:57;11.10;99.90
13808;DHT22;40769;51.512;5.494;2023-04-24T03:51:22;11.10;99.90
13808;DHT22;40769;51.512;5.494;2023-04-24T03:53:48;11.10;99.90
13808;DHT22;40769;51.512;5.494;2023-04-24T03:56:14;11.10;99.90
13808;DHT22;40769;51.512;5.494;2023-04-24T03:58:40;11.40;99.90
13808;DHT22;40769;51.512;5.494;2023-04-24T04:01:06;11.10;99.90
13808;DHT22;40769;51.512;5.494;2023-04-24T04:03:31;11.20;99.90
13808;DHT22;40769;51.512;5.494;2023-04-24T04:05:57;11.20;99.90
13808;DHT22;40769;51.512;5.494;2023-04-24T04:08:23;11.20;99.90
13808;DHT22;40769;51.512;5.494;2023-04-24T04:10:48;11.50;99.90
13808;DHT22;40769;51.512;5.494;2023-04-24T04:13:14;11.20;99.90
13808;DHT22;40769;51.512;5.494;2023-04-24T04:15:40;11.10;99.90
13808;DHT22;40769;51.512;5.494;2023-04-24T04:18:06;11.10;99.90
13808;DHT22;40769;51.512;5.494;2023-04-24T04:20:34;11.10;99.90
13808;DHT22;40769;51.512;5.494;2023-04-24T04:23:00;11.10;99.90
13808;DHT22;40769;51.512;5.494;2023-04-24T04:25:25;11.10;99.90
13808;DHT22;40769;51.512;5.494;2023-04-24T04:27:51;11.10;99.90
13808;DHT22;40769;51.512;5.494;2023-04-24T04:30:17;12.00;99.90
13808;DHT22;40769;51.512;5.494;2023-04-24T04:32:43;11.10;99.90
13808;DHT22;40769;51.512;5.494;2023-04-24T04:35:09;11.10;99.90
13808;DHT22;40769;51.512;5.494;2023-04-24T04:37:35;12.30;99.90
13808;DHT22;40769;51.512;5.494;2023-04-24T04:40:01;11.00;99.90
13808;DHT22;40769;51.512;5.494;2023-04-24T04:42:31;11.00;99.90
13808;DHT22;40769;51.512;5.494;2023-04-24T04:44:58;11.00;99.90
13808;DHT22;40769;51.512;5.494;2023-04-24T04:47:23;11.00;99.90
13808;DHT22;40769;51.512;5.494;2023-04-24T04:49:49;10.90;99.90
13808;DHT22;40769;51.512;5.494;2023-04-24T04:52:17;10.90;99.90
13808;DHT22;40769;51.512;5.494;2023-04-24T04:54:43;11.40;99.90
13808;DHT22;40769;51.512;5.494;2023-04-24T04:57:08;10.80;99.90
13808;DHT22;40769;51.512;5.494;2023-04-24T04:59:34;10.80;99.90
13808;DHT22;40769;51.512;5.494;2023-04-24T05:02:00;10.90;99.90
13808;DHT22;40769;51.512;5.494;2023-04-24T05:04:25;10.90;99.90
13808;DHT22;40769;51.512;5.494;2023-04-24T05:06:52;10.90;99.90
13808;DHT22;40769;51.512;5.494;2023-04-24T05:09:18;11.00;99.90
13808;DHT22;40769;51.512;5.494;2023-04-24T05:11:43;10.90;99.90
13808;DHT22;40769;51.512;5.494;2023-04-24T05:14:09;10.90;99.90
13808;DHT22;40769;51.512;5.494;2023-04-24T05:16:35;10.90;99.90
13808;DHT22;40769;51.512;5.494;2023-04-24T05:19:02;10.90;99.90
13808;DHT22;40769;51.512;5.494;2023-04-24T05:21:28;11.00;99.90
13808;DHT22;40769;51.512;5.494;2023-04-24T05:23:54;11.10;99.90
13808;DHT22;40769;51.512;5.494;2023-04-24T05:26:20;10.90;99.90
13808;DHT22;40769;51.512;5.494;2023-04-24T05:28:45;10.90;99.90
13808;DHT22;40769;51.512;5.494;2023-04-24T05:31:11;10.90;99.90
13808;DHT22;40769;51.512;5.494;2023-04-24T05:33:37;10.90;99.90
13808;DHT22;40769;51.512;5.494;2023-04-24T05:36:03;11.00;99.90
13808;DHT22;40769;51.512;5.494;2023-04-24T05:38:30;10.90;99.90
13808;DHT22;40769;51.512;5.494;2023-04-24T05:40:56;11.60;99.90
13808;DHT22;40769;51.512;5.494;2023-04-24T05:43:22;11.00;99.90
13808;DHT22;40769;51.512;5.494;2023-04-24T05:45:47;11.00;99.90
13808;DHT22;40769;51.512;5.494;2023-04-24T05:48:13;11.00;99.90
13808;DHT22;40769;51.512;5.494;2023-04-24T05:50:39;11.00;99.90
13808;DHT22;40769;51.512;5.494;2023-04-24T05:53:05;11.20;99.90
13808;DHT22;40769;51.512;5.494;2023-04-24T05:55:32;10.90;99.90
13808;DHT22;40769;51.512;5.494;2023-04-24T05:57:58;10.90;99.90
13808;DHT22;40769;51.512;5.494;2023-04-24T06:00:24;10.90;99.90
13808;DHT22;40769;51.512;5.494;2023-04-24T06:02:50;10.80;99.90
13808;DHT22;40769;51.512;5.494;2023-04-24T06:05:17;10.80;99.90
13808;DHT22;40769;51.512;5.494;2023-04-24T06:07:43;10.80;99.90
13808;DHT22;40769;51.512;5.494;2023-04-24T06:10:09;10.70;99.90
13808;DHT22;40769;51.512;5.494;2023-04-24T06:12:35;10.80;99.90
13808;DHT22;40769;51.512;5.494;2023-04-24T06:15:02;10.80;99.90
13808;DHT22;40769;51.512;5.494;2023-04-24T06:17:27;10.80;99.90
13808;DHT22;40769;51.512;5.494;2023-04-24T06:19:53;10.80;99.90
13808;DHT22;40769;51.512;5.494;2023-04-24T06:22:19;11.50;99.90
13808;DHT22;40769;51.512;5.494;2023-04-24T06:24:44;10.80;99.90
13808;DHT22;40769;51.512;5.494;2023-04-24T06:27:10;10.80;99.90
13808;DHT22;40769;51.512;5.494;2023-04-24T06:29:36;10.90;99.90
13808;DHT22;40769;51.512;5.494;2023-04-24T06:32:02;10.80;99.90
13808;DHT22;40769;51.512;5.494;2023-04-24T06:34:28;10.80;99.90
13808;DHT22;40769;51.512;5.494;2023-04-24T06:36:54;10.80;99.90
13808;DHT22;40769;51.512;5.494;2023-04-24T06:39:21;11.20;99.90
13808;DHT22;40769;51.512;5.494;2023-04-24T06:41:46;10.80;99.90
13808;DHT22;40769;51.512;5.494;2023-04-24T06:44:12;10.80;99.90
13808;DHT22;40769;51.512;5.494;2023-04-24T06:46:40;10.80;99.90
13808;DHT22;40769;51.512;5.494;2023-04-24T06:49:06;10.80;99.90
13808;DHT22;40769;51.512;5.494;2023-04-24T06:51:32;10.80;99.90
13808;DHT22;40769;51.512;5.494;2023-04-24T06:53:59;10.90;99.90
13808;DHT22;40769;51.512;5.494;2023-04-24T06:56:25;10.90;99.90
13808;DHT22;40769;51.512;5.494;2023-04-24T06:58:51;10.90;99.90
13808;DHT22;40769;51.512;5.494;2023-04-24T07:01:17;10.90;99.90
13808;DHT22;40769;51.512;5.494;2023-04-24T07:03:43;10.90;99.90
13808;DHT22;40769;51.512;5.494;2023-04-24T07:06:09;10.90;99.90
13808;DHT22;40769;51.512;5.494;2023-04-24T07:08:36;10.90;99.90
13808;DHT22;40769;51.512;5.494;2023-04-24T07:11:02;10.80;99.90
13808;DHT22;40769;51.512;5.494;2023-04-24T07:13:28;10.80;99.90
13808;DHT22;40769;51.512;5.494;2023-04-24T07:15:54;10.70;99.90
13808;DHT22;40769;51.512;5.494;2023-04-24T07:18:21;10.70;99.90
13808;DHT22;40769;51.512;5.494;2023-04-24T07:20:47;10.70;99.90
13808;DHT22;40769;51.512;5.494;2023-04-24T07:23:15;11.00;99.90
13808;DHT22;40769;51.512;5.494;2023-04-24T07:25:41;10.70;99.90
13808;DHT22;40769;51.512;5.494;2023-04-24T07:28:07;10.60;99.90
13808;DHT22;40769;51.512;5.494;2023-04-24T07:30:33;10.60;99.90
13808;DHT22;40769;51.512;5.494;2023-04-24T07:32:59;10.60;99.90
13808;DHT22;40769;51.512;5.494;2023-04-24T07:35:26;11.00;99.90
13808;DHT22;40769;51.512;5.494;2023-04-24T07:37:55;10.60;99.90
13808;DHT22;40769;51.512;5.494;2023-04-24T07:40:22;10.60;99.90
13808;DHT22;40769;51.512;5.494;2023-04-24T07:42:48;10.60;99.90
13808;DHT22;40769;51.512;5.494;2023-04-24T07:45:14;10.60;99.90
13808;DHT22;40769;51.512;5.494;2023-04-24T07:47:43;10.60;99.90
13808;DHT22;40769;51.512;5.494;2023-04-24T07:50:11;10.90;99.90
13808;DHT22;40769;51.512;5.494;2023-04-24T07:52:37;10.60;99.90
13808;DHT22;40769;51.512;5.494;2023-04-24T07:55:03;10.70;99.90
13808;DHT22;40769;51.512;5.494;2023-04-24T07:57:28;10.60;99.90
13808;DHT22;40769;51.512;5.494;2023-04-24T07:59:54;11.00;99.90
13808;DHT22;40769;51.512;5.494;2023-04-24T08:02:21;10.70;99.90
13808;DHT22;40769;51.512;5.494;2023-04-24T08:04:55;10.70;99.90
13808;DHT22;40769;51.512;5.494;2023-04-24T08:07:21;10.70;99.90
13808;DHT22;40769;51.512;5.494;2023-04-24T08:09:47;11.20;99.90
13808;DHT22;40769;51.512;5.494;2023-04-24T08:12:13;10.60;99.90
13808;DHT22;40769;51.512;5.494;2023-04-24T08:14:38;10.60;99.90
13808;DHT22;40769;51.512;5.494;2023-04-24T08:17:04;10.60;99.90
13808;DHT22;40769;51.512;5.494;2023-04-24T08:19:30;11.00;99.90
13808;DHT22;40769;51.512;5.494;2023-04-24T08:21:55;10.70;99.90
13808;DHT22;40769;51.512;5.494;2023-04-24T08:24:22;10.70;99.90
13808;DHT22;40769;51.512;5.494;2023-04-24T08:26:48;10.70;99.90
13808;DHT22;40769;51.512;5.494;2023-04-24T08:29:16;10.70;99.90
13808;DHT22;40769;51.512;5.494;2023-04-24T08:31:42;11.30;99.90
13808;DHT22;40769;51.512;5.494;2023-04-24T08:34:08;10.80;99.90
13808;DHT22;40769;51.512;5.494;2023-04-24T08:36:34;11.30;99.90
13808;DHT22;40769;51.512;5.494;2023-04-24T08:39:00;10.90;99.90
13808;DHT22;40769;51.512;5.494;2023-04-24T08:41:27;11.30;99.90
13808;DHT22;40769;51.512;5.494;2023-04-24T08:43:53;10.90;99.90
13808;DHT22;40769;51.512;5.494;2023-04-24T08:46:20;11.10;99.90
13808;DHT22;40769;51.512;5.494;2023-04-24T08:48:48;11.00;99.90
13808;DHT22;40769;51.512;5.494;2023-04-24T08:51:15;10.90;99.90
13808;DHT22;40769;51.512;5.494;2023-04-24T08:53:42;10.90;99.90
13808;DHT22;40769;51.512;5.494;2023-04-24T08:56:09;10.90;99.90
13808;DHT22;40769;51.512;5.494;2023-04-24T08:58:36;10.90;99.90
13808;DHT22;40769;51.512;5.494;2023-04-24T09:01:02;11.00;99.90
13808;DHT22;40769;51.512;5.494;2023-04-24T09:03:29;11.00;99.90
13808;DHT22;40769;51.512;5.494;2023-04-24T09:05:55;11.10;99.90
13808;DHT22;40769;51.512;5.494;2023-04-24T09:08:25;11.10;99.90
13808;DHT22;40769;51.512;5.494;2023-04-24T09:10:51;11.20;99.90
13808;DHT22;40769;51.512;5.494;2023-04-24T09:13:18;11.30;99.90
13808;DHT22;40769;51.512;5.494;2023-04-24T09:15:44;12.00;99.90
13808;DHT22;40769;51.512;5.494;2023-04-24T09:18:10;11.20;99.90
13808;DHT22;40769;51.512;5.494;2023-04-24T09:23:31;11.20;99.90
13808;DHT22;40769;51.512;5.494;2023-04-24T09:25:59;11.10;99.90
13808;DHT22;40769;51.512;5.494;2023-04-24T09:29:00;11.10;99.90
13808;DHT22;40769;51.512;5.494;2023-04-24T09:31:19;11.10;99.90
13808;DHT22;40769;51.512;5.494;2023-04-24T09:34:13;11.10;99.90
13808;DHT22;40769;51.512;5.494;2023-04-24T09:36:41;11.20;99.90
13808;DHT22;40769;51.512;5.494;2023-04-24T09:39:12;11.20;99.90
13808;DHT22;40769;51.512;5.494;2023-04-24T09:41:53;11.50;99.90
13808;DHT22;40769;51.512;5.494;2023-04-24T09:44:24;11.30;99.90
13808;DHT22;40769;51.512;5.494;2023-04-24T09:46:57;11.30;99.90
13808;DHT22;40769;51.512;5.494;2023-04-24T09:49:30;11.40;99.90
13808;DHT22;40769;51.512;5.494;2023-04-24T09:52:11;11.20;99.90
13808;DHT22;40769;51.512;5.494;2023-04-24T09:54:37;11.30;99.90
13808;DHT22;40769;51.512;5.494;2023-04-24T09:57:04;11.20;99.90
13808;DHT22;40769;51.512;5.494;2023-04-24T09:59:30;11.20;99.90
13808;DHT22;40769;51.512;5.494;2023-04-24T10:01:56;11.30;99.90
13808;DHT22;40769;51.512;5.494;2023-04-24T10:04:25;11.40;99.90
13808;DHT22;40769;51.512;5.494;2023-04-24T10:06:54;11.20;99.90
13808;DHT22;40769;51.512;5.494;2023-04-24T10:09:25;11.20;99.90
13808;DHT22;40769;51.512;5.494;2023-04-24T10:11:53;11.20;99.90
13808;DHT22;40769;51.512;5.494;2023-04-24T10:14:23;11.50;99.90
13808;DHT22;40769;51.512;5.494;2023-04-24T10:16:52;11.30;99.90
13808;DHT22;40769;51.512;5.494;2023-04-24T10:19:18;11.70;99.90
13808;DHT22;40769;51.512;5.494;2023-04-24T10:21:44;11.70;99.90
13808;DHT22;40769;51.512;5.494;2023-04-24T10:24:17;11.90;99.90
13808;DHT22;40769;51.512;5.494;2023-04-24T10:26:45;12.00;99.90
13808;DHT22;40769;51.512;5.494;2023-04-24T10:29:12;12.10;99.90
13808;DHT22;40769;51.512;5.494;2023-04-24T10:31:38;12.20;99.90
13808;DHT22;40769;51.512;5.494;2023-04-24T10:34:05;12.20;99.90
13808;DHT22;40769;51.512;5.494;2023-04-24T10:36:33;12.20;99.90
13808;DHT22;40769;51.512;5.494;2023-04-24T10:39:02;12.10;99.90
13808;DHT22;40769;51.512;5.494;2023-04-24T10:41:30;12.10;99.90
13808;DHT22;40769;51.512;5.494;2023-04-24T10:44:09;12.00;99.90
13808;DHT22;40769;51.512;5.494;2023-04-24T10:46:35;11.90;99.90
13808;DHT22;40769;51.512;5.494;2023-04-24T10:49:07;11.90;99.90
13808;DHT22;40769;51.512;5.494;2023-04-24T10:51:50;11.80;99.90
13808;DHT22;40769;51.512;5.494;2023-04-24T10:54:40;12.60;99.90
13808;DHT22;40769;51.512;5.494;2023-04-24T11:00:09;11.80;99.90
13808;DHT22;40769;51.512;5.494;2023-04-24T11:02:40;11.70;99.90
13808;DHT22;40769;51.512;5.494;2023-04-24T11:05:09;11.80;99.90
13808;DHT22;40769;51.512;5.494;2023-04-24T11:08:14;11.80;99.90
13808;DHT22;40769;51.512;5.494;2023-04-24T11:10:46;11.70;99.90
13808;DHT22;40769;51.512;5.494;2023-04-24T11:13:21;11.80;99.90
13808;DHT22;40769;51.512;5.494;2023-04-24T11:16:14;11.80;99.90
13808;DHT22;40769;51.512;5.494;2023-04-24T11:18:42;11.90;99.90
13808;DHT22;40769;51.512;5.494;2023-04-24T11:21:17;11.90;99.90
13808;DHT22;40769;51.512;5.494;2023-04-24T11:23:43;12.00;99.90
13808;DHT22;40769;51.512;5.494;2023-04-24T11:26:16;11.90;99.90
13808;DHT22;40769;51.512;5.494;2023-04-24T11:28:49;11.80;99.90
13808;DHT22;40769;51.512;5.494;2023-04-24T11:31:34;11.80;99.90
13808;DHT22;40769;51.512;5.494;2023-04-24T11:34:11;11.80;99.90
13808;DHT22;40769;51.512;5.494;2023-04-24T11:36:38;11.70;99.90
13808;DHT22;40769;51.512;5.494;2023-04-24T11:39:04;11.60;99.90
13808;DHT22;40769;51.512;5.494;2023-04-24T11:41:31;11.50;99.90
13808;DHT22;40769;51.512;5.494;2023-04-24T11:43:57;11.50;99.90
13808;DHT22;40769;51.512;5.494;2023-04-24T11:46:26;11.50;99.90
13808;DHT22;40769;51.512;5.494;2023-04-24T11:48:51;11.50;99.90
13808;DHT22;40769;51.512;5.494;2023-04-24T11:51:17;11.50;99.90
13808;DHT22;40769;51.512;5.494;2023-04-24T11:53:43;11.60;99.90
13808;DHT22;40769;51.512;5.494;2023-04-24T11:56:09;11.70;99.90
13808;DHT22;40769;51.512;5.494;2023-04-24T11:58:36;11.80;99.90
13808;DHT22;40769;51.512;5.494;2023-04-24T12:01:02;11.90;99.90
13808;DHT22;40769;51.512;5.494;2023-04-24T12:03:28;12.00;99.90
13808;DHT22;40769;51.512;5.494;2023-04-24T12:06:05;12.10;99.90
13808;DHT22;40769;51.512;5.494;2023-04-24T12:08:32;12.20;99.90
13808;DHT22;40769;51.512;5.494;2023-04-24T12:10:57;12.50;99.90
13808;DHT22;40769;51.512;5.494;2023-04-24T12:13:28;12.40;99.90
13808;DHT22;40769;51.512;5.494;2023-04-24T12:15:54;12.50;99.90
13808;DHT22;40769;51.512;5.494;2023-04-24T12:18:22;12.40;99.90
13808;DHT22;40769;51.512;5.494;2023-04-24T12:20:49;12.60;99.90
13808;DHT22;40769;51.512;5.494;2023-04-24T12:23:14;12.70;99.90
13808;DHT22;40769;51.512;5.494;2023-04-24T12:25:40;12.80;99.90
13808;DHT22;40769;51.512;5.494;2023-04-24T12:30:42;12.90;99.90
13808;DHT22;40769;51.512;5.494;2023-04-24T12:33:10;13.00;99.90
13808;DHT22;40769;51.512;5.494;2023-04-24T12:35:35;13.10;99.90
13808;DHT22;40769;51.512;5.494;2023-04-24T12:38:11;13.20;99.90
13808;DHT22;40769;51.512;5.494;2023-04-24T12:40:41;13.30;99.90
13808;DHT22;40769;51.512;5.494;2023-04-24T12:43:19;13.50;99.90
13808;DHT22;40769;51.512;5.494;2023-04-24T12:45:48;13.50;99.90
13808;DHT22;40769;51.512;5.494;2023-04-24T12:48:14;13.60;99.90
13808;DHT22;40769;51.512;5.494;2023-04-24T12:50:40;13.80;99.90
13808;DHT22;40769;51.512;5.494;2023-04-24T12:53:07;13.90;99.90
13808;DHT22;40769;51.512;5.494;2023-04-24T12:55:33;14.20;99.90
13808;DHT22;40769;51.512;5.494;2023-04-24T12:57:59;14.10;99.90
13808;DHT22;40769;51.512;5.494;2023-04-24T13:00:25;14.20;99.90
13808;DHT22;40769;51.512;5.494;2023-04-24T13:02:50;14.30;99.90
13808;DHT22;40769;51.512;5.494;2023-04-24T13:05:16;14.40;99.90
13808;DHT22;40769;51.512;5.494;2023-04-24T13:07:42;14.50;99.90
13808;DHT22;40769;51.512;5.494;2023-04-24T13:10:08;14.60;99.90
13808;DHT22;40769;51.512;5.494;2023-04-24T13:12:34;14.80;99.90
13808;DHT22;40769;51.512;5.494;2023-04-24T13:15:00;14.90;99.90
13808;DHT22;40769;51.512;5.494;2023-04-24T13:17:26;14.90;99.90
13808;DHT22;40769;51.512;5.494;2023-04-24T13:19:53;14.90;99.90
13808;DHT22;40769;51.512;5.494;2023-04-24T13:22:20;14.80;99.90
13808;DHT22;40769;51.512;5.494;2023-04-24T13:24:46;14.60;99.90
13808;DHT22;40769;51.512;5.494;2023-04-24T13:27:15;14.40;99.90
13808;DHT22;40769;51.512;5.494;2023-04-24T13:29:40;14.20;99.90
13808;DHT22;40769;51.512;5.494;2023-04-24T13:32:07;13.90;99.90
13808;DHT22;40769;51.512;5.494;2023-04-24T13:34:33;13.70;99.90
13808;DHT22;40769;51.512;5.494;2023-04-24T13:37:00;13.60;99.90
13808;DHT22;40769;51.512;5.494;2023-04-24T13:39:26;13.50;99.90
13808;DHT22;40769;51.512;5.494;2023-04-24T13:41:55;13.40;99.90
13808;DHT22;40769;51.512;5.494;2023-04-24T13:44:21;13.30;99.90
13808;DHT22;40769;51.512;5.494;2023-04-24T13:46:50;13.30;99.90
13808;DHT22;40769;51.512;5.494;2023-04-24T13:49:17;13.30;99.90
13808;DHT22;40769;51.512;5.494;2023-04-24T13:51:43;13.30;99.90
13808;DHT22;40769;51.512;5.494;2023-04-24T13:54:09;13.40;99.90
13808;DHT22;40769;51.512;5.494;2023-04-24T13:56:35;13.50;99.90
13808;DHT22;40769;51.512;5.494;2023-04-24T13:59:00;13.70;99.90
13808;DHT22;40769;51.512;5.494;2023-04-24T14:01:26;13.60;99.90
13808;DHT22;40769;51.512;5.494;2023-04-24T14:03:53;13.70;99.90
13808;DHT22;40769;51.512;5.494;2023-04-24T14:06:19;13.70;99.90
13808;DHT22;40769;51.512;5.494;2023-04-24T14:08:46;13.60;99.90
13808;DHT22;40769;51.512;5.494;2023-04-24T14:11:11;13.50;99.90
13808;DHT22;40769;51.512;5.494;2023-04-24T14:13:38;13.50;99.90
13808;DHT22;40769;51.512;5.494;2023-04-24T14:16:04;13.50;99.90
13808;DHT22;40769;51.512;5.494;2023-04-24T14:18:30;13.50;99.90
13808;DHT22;40769;51.512;5.494;2023-04-24T14:20:56;13.50;99.90
13808;DHT22;40769;51.512;5.494;2023-04-24T14:23:21;13.40;99.90
13808;DHT22;40769;51.512;5.494;2023-04-24T14:25:47;13.30;99.90
13808;DHT22;40769;51.512;5.494;2023-04-24T14:28:20;13.20;99.90
13808;DHT22;40769;51.512;5.494;2023-04-24T14:30:46;13.00;99.90
13808;DHT22;40769;51.512;5.494;2023-04-24T14:33:12;12.90;99.90
13808;DHT22;40769;51.512;5.494;2023-04-24T14:35:39;12.90;99.90
13808;DHT22;40769;51.512;5.494;2023-04-24T14:38:05;12.80;99.90
13808;DHT22;40769;51.512;5.494;2023-04-24T14:40:31;12.70;99.90
13808;DHT22;40769;51.512;5.494;2023-04-24T14:42:58;12.70;99.90
13808;DHT22;40769;51.512;5.494;2023-04-24T14:45:24;12.70;99.90
13808;DHT22;40769;51.512;5.494;2023-04-24T14:47:50;12.70;99.90
13808;DHT22;40769;51.512;5.494;2023-04-24T14:50:16;12.90;99.90
13808;DHT22;40769;51.512;5.494;2023-04-24T14:52:42;13.10;99.90
13808;DHT22;40769;51.512;5.494;2023-04-24T14:55:08;13.20;99.90
13808;DHT22;40769;51.512;5.494;2023-04-24T14:57:34;13.40;99.90
13808;DHT22;40769;51.512;5.494;2023-04-24T15:00:04;13.80;99.90
13808;DHT22;40769;51.512;5.494;2023-04-24T15:02:32;13.70;99.90
13808;DHT22;40769;51.512;5.494;2023-04-24T15:04:58;14.00;99.90
13808;DHT22;40769;51.512;5.494;2023-04-24T15:07:24;14.10;99.90
13808;DHT22;40769;51.512;5.494;2023-04-24T15:09:50;14.40;99.90
13808;DHT22;40769;51.512;5.494;2023-04-24T15:12:16;14.60;99.90
13808;DHT22;40769;51.512;5.494;2023-04-24T15:14:42;14.90;99.90
13808;DHT22;40769;51.512;5.494;2023-04-24T15:17:07;15.10;99.90
13808;DHT22;40769;51.512;5.494;2023-04-24T15:19:33;15.30;99.90
13808;DHT22;40769;51.512;5.494;2023-04-24T15:21:59;15.60;99.90
13808;DHT22;40769;51.512;5.494;2023-04-24T15:24:24;15.90;99.90
13808;DHT22;40769;51.512;5.494;2023-04-24T15:26:50;16.10;99.90
13808;DHT22;40769;51.512;5.494;2023-04-24T15:29:16;16.30;99.90
13808;DHT22;40769;51.512;5.494;2023-04-24T15:31:42;16.40;99.90
13808;DHT22;40769;51.512;5.494;2023-04-24T15:34:07;16.40;99.90
13808;DHT22;40769;51.512;5.494;2023-04-24T15:36:34;16.30;99.90
13808;DHT22;40769;51.512;5.494;2023-04-24T15:39:03;16.20;99.90